Time;durP1;ratioP1;P1;durP2;ratioP2;P2;SDS_P1;SDS_P2;PMS_P1;PMS_P2;Temp;Humidity;BMP_temperature;BMP_pressure;BME280_temperature;BME280_humidity;BME280_pressure;Samples;Min_cycle;Max_cycle;Signal;HPM_P1;HPM_P2
2023/12/15 00:01:44;;;;;;;24.42;14.27;;;;;;;;;;5000061;28;20891;-64
2023/12/15 00:04:10;;;;;;;21.17;13.30;;;;;;;;;;5000234;28;20033;-64
2023/12/15 00:06:37;;;;;;;24.70;13.68;;;;;;;;;;5000858;28;20397;-64
2023/12/15 00:09:03;;;;;;;25.15;13.63;;;;;;;;;;5001259;28;21684;-64
2023/12/15 00:11:29;;;;;;;21.50;13.18;;;;;;;;;;4999472;28;20038;-63
2023/12/15 00:13:55;;;;;;;24.90;14.18;;;;;;;;;;5000816;28;20033;-63
2023/12/15 00:16:21;;;;;;;27.33;15.05;;;;;;;;;;4999919;28;20030;-63
2023/12/15 00:18:47;;;;;;;28.70;14.13;;;;;;;;;;4999333;28;20064;-63
2023/12/15 00:21:13;;;;;;;24.45;14.30;;;;;;;;;;4999461;28;20040;-63
2023/12/15 00:23:39;;;;;;;23.88;14.43;;;;;;;;;;4999645;28;20025;-63
2023/12/15 00:26:05;;;;;;;23.08;14.07;;;;;;;;;;4999764;28;20038;-63
2023/12/15 00:28:31;;;;;;;25.77;14.50;;;;;;;;;;5000695;28;20098;-63
2023/12/15 00:30:57;;;;;;;23.73;14.07;;;;;;;;;;5000131;28;20037;-63
2023/12/15 00:33:23;;;;;;;21.58;13.75;;;;;;;;;;5016168;28;20030;-63
2023/12/15 00:35:49;;;;;;;25.98;14.18;;;;;;;;;;4999272;28;20045;-63
2023/12/15 00:38:15;;;;;;;27.98;13.82;;;;;;;;;;5000384;28;20037;-63
2023/12/15 00:40:41;;;;;;;25.33;15.40;;;;;;;;;;4998943;28;20037;-64
2023/12/15 00:43:08;;;;;;;30.38;15.48;;;;;;;;;;4998216;28;20034;-64
2023/12/15 00:45:34;;;;;;;25.45;15.38;;;;;;;;;;4999383;28;20033;-63
2023/12/15 00:48:00;;;;;;;24.63;15.27;;;;;;;;;;4999187;28;20042;-63
2023/12/15 00:50:28;;;;;;;25.58;14.02;;;;;;;;;;4996954;28;20058;-64
2023/12/15 00:52:54;;;;;;;27.50;15.73;;;;;;;;;;4998957;28;20025;-64
2023/12/15 00:55:20;;;;;;;26.85;16.70;;;;;;;;;;4996737;28;20370;-64
2023/12/15 00:57:46;;;;;;;25.58;16.33;;;;;;;;;;4997922;28;20538;-64
2023/12/15 01:00:13;;;;;;;28.77;17.05;;;;;;;;;;4998564;28;21778;-64
2023/12/15 01:02:39;;;;;;;37.15;17.15;;;;;;;;;;4997998;28;20071;-64
2023/12/15 01:05:05;;;;;;;26.30;16.15;;;;;;;;;;4998801;28;20068;-64
2023/12/15 01:07:31;;;;;;;30.50;16.30;;;;;;;;;;4999036;28;20493;-64
2023/12/15 01:09:57;;;;;;;24.65;15.30;;;;;;;;;;4998049;28;21799;-63
2023/12/15 01:12:23;;;;;;;33.97;18.25;;;;;;;;;;4998622;28;20106;-63
2023/12/15 01:14:49;;;;;;;28.50;17.20;;;;;;;;;;4997744;28;20175;-63
2023/12/15 01:17:15;;;;;;;33.55;19.52;;;;;;;;;;4998283;28;20057;-64
2023/12/15 01:19:41;;;;;;;30.90;17.67;;;;;;;;;;4998088;28;20030;-64
2023/12/15 01:22:07;;;;;;;32.50;17.25;;;;;;;;;;4998132;28;20034;-64
2023/12/15 01:24:33;;;;;;;32.83;17.63;;;;;;;;;;4999402;28;20648;-64
2023/12/15 01:26:59;;;;;;;32.58;18.83;;;;;;;;;;4999273;28;20790;-64
2023/12/15 01:29:25;;;;;;;36.33;19.42;;;;;;;;;;4998816;28;20576;-64
2023/12/15 01:31:51;;;;;;;36.25;18.88;;;;;;;;;;4998367;28;20898;-64
2023/12/15 01:34:18;;;;;;;32.63;18.27;;;;;;;;;;4998352;28;20042;-63
2023/12/15 01:36:44;;;;;;;34.58;18.77;;;;;;;;;;4997423;28;20044;-63
2023/12/15 01:39:10;;;;;;;34.17;20.00;;;;;;;;;;4998384;28;20074;-63
2023/12/15 01:41:36;;;;;;;35.90;20.77;;;;;;;;;;4997943;28;20033;-63
2023/12/15 01:44:02;;;;;;;33.20;18.88;;;;;;;;;;4998685;28;20034;-63
2023/12/15 01:46:28;;;;;;;32.70;19.85;;;;;;;;;;4997541;28;20044;-63
2023/12/15 01:48:54;;;;;;;35.42;20.00;;;;;;;;;;4992955;28;20925;-63
2023/12/15 01:51:20;;;;;;;34.33;20.77;;;;;;;;;;4997750;28;20056;-63
2023/12/15 01:53:46;;;;;;;37.67;21.50;;;;;;;;;;4998712;28;20084;-63
2023/12/15 01:56:13;;;;;;;40.13;21.50;;;;;;;;;;4998332;28;20033;-64
2023/12/15 01:58:39;;;;;;;37.10;20.70;;;;;;;;;;4998132;28;21807;-63
2023/12/15 02:01:05;;;;;;;40.15;21.40;;;;;;;;;;4998366;28;20589;-63
2023/12/15 02:03:31;;;;;;;43.65;22.65;;;;;;;;;;4997631;28;20517;-63
2023/12/15 02:05:57;;;;;;;35.58;20.85;;;;;;;;;;4997222;28;20610;-63
2023/12/15 02:08:23;;;;;;;42.03;21.50;;;;;;;;;;4998916;28;21657;-63
2023/12/15 02:10:49;;;;;;;42.63;21.00;;;;;;;;;;4998659;28;20560;-63
2023/12/15 02:13:15;;;;;;;38.03;21.42;;;;;;;;;;4998625;28;20684;-64
2023/12/15 02:15:41;;;;;;;39.03;20.60;;;;;;;;;;4997947;28;20025;-64
2023/12/15 02:18:07;;;;;;;40.20;21.25;;;;;;;;;;4998105;28;20593;-64
2023/12/15 02:20:33;;;;;;;33.90;21.88;;;;;;;;;;4998570;28;20715;-64
2023/12/15 02:22:59;;;;;;;46.78;21.42;;;;;;;;;;4998909;28;21826;-64
2023/12/15 02:25:25;;;;;;;32.58;19.75;;;;;;;;;;5012662;28;20445;-63
2023/12/15 02:27:53;;;;;;;35.85;20.08;;;;;;;;;;4996843;28;20037;-63
2023/12/15 02:30:19;;;;;;;38.08;22.30;;;;;;;;;;4998177;28;20044;-64
2023/12/15 02:32:45;;;;;;;40.17;19.90;;;;;;;;;;4998948;28;20516;-64
2023/12/15 02:35:11;;;;;;;40.05;21.05;;;;;;;;;;4999969;28;20037;-64
2023/12/15 02:37:38;;;;;;;33.30;19.67;;;;;;;;;;5000864;28;20037;-63
2023/12/15 02:40:04;;;;;;;36.47;19.92;;;;;;;;;;5001819;28;20033;-63
2023/12/15 02:42:30;;;;;;;43.05;20.02;;;;;;;;;;5001932;28;20489;-64
2023/12/15 02:44:56;;;;;;;38.55;19.17;;;;;;;;;;5001795;28;20089;-64
2023/12/15 02:47:23;;;;;;;33.95;18.38;;;;;;;;;;5002026;28;20037;-64
2023/12/15 02:49:49;;;;;;;32.72;18.30;;;;;;;;;;5002059;28;20787;-64
2023/12/15 02:52:15;;;;;;;36.95;19.38;;;;;;;;;;5000838;28;20508;-64
2023/12/15 02:54:41;;;;;;;36.45;18.42;;;;;;;;;;5001914;28;20092;-64
2023/12/15 02:57:07;;;;;;;32.53;19.25;;;;;;;;;;5000277;28;20034;-64
2023/12/15 02:59:33;;;;;;;32.63;18.10;;;;;;;;;;5001825;28;20033;-64
2023/12/15 03:01:59;;;;;;;31.60;18.55;;;;;;;;;;5001737;28;20109;-63
2023/12/15 03:04:25;;;;;;;29.75;18.20;;;;;;;;;;5001573;28;20033;-63
2023/12/15 03:06:51;;;;;;;31.90;17.20;;;;;;;;;;5001157;28;20033;-63
2023/12/15 03:09:17;;;;;;;30.30;17.25;;;;;;;;;;4996756;28;20120;-63
2023/12/15 03:11:43;;;;;;;30.60;17.50;;;;;;;;;;5000700;28;20037;-63
2023/12/15 03:14:09;;;;;;;33.10;18.73;;;;;;;;;;5000166;28;20142;-63
2023/12/15 03:16:35;;;;;;;31.02;17.73;;;;;;;;;;5000730;28;20038;-63
2023/12/15 03:19:01;;;;;;;32.33;17.05;;;;;;;;;;5000574;28;20022;-63
2023/12/15 03:21:27;;;;;;;31.15;17.35;;;;;;;;;;5001947;28;20028;-63
2023/12/15 03:23:53;;;;;;;34.78;18.48;;;;;;;;;;5001036;28;20037;-63
2023/12/15 03:26:19;;;;;;;33.95;17.88;;;;;;;;;;5001164;28;20100;-63
2023/12/15 03:28:45;;;;;;;28.35;17.17;;;;;;;;;;5001839;28;20048;-63
2023/12/15 03:31:12;;;;;;;31.25;16.77;;;;;;;;;;5001652;28;20095;-63
2023/12/15 03:33:38;;;;;;;27.17;16.67;;;;;;;;;;5001227;28;20029;-63
2023/12/15 03:36:04;;;;;;;28.27;16.98;;;;;;;;;;5000025;28;20123;-63
2023/12/15 03:38:31;;;;;;;27.88;16.40;;;;;;;;;;5001999;28;20029;-63
2023/12/15 03:40:57;;;;;;;32.35;18.08;;;;;;;;;;5000924;28;20555;-63
2023/12/15 03:43:23;;;;;;;39.33;18.75;;;;;;;;;;5000566;28;20595;-63
2023/12/15 03:45:49;;;;;;;27.35;16.23;;;;;;;;;;4999486;28;20048;-63
2023/12/15 03:48:16;;;;;;;24.52;15.63;;;;;;;;;;5001366;28;20040;-63
2023/12/15 03:50:42;;;;;;;31.95;15.68;;;;;;;;;;5000436;28;20057;-63
2023/12/15 03:53:08;;;;;;;26.30;14.73;;;;;;;;;;5000878;28;20034;-63
2023/12/15 03:55:34;;;;;;;27.05;14.77;;;;;;;;;;4999503;28;20038;-63
2023/12/15 03:58:00;;;;;;;27.63;15.10;;;;;;;;;;5000070;28;20528;-63
2023/12/15 04:00:26;;;;;;;27.08;16.13;;;;;;;;;;5000583;28;20634;-63
2023/12/15 04:02:52;;;;;;;29.02;15.43;;;;;;;;;;5000838;28;20990;-63
2023/12/15 04:05:18;;;;;;;31.48;16.23;;;;;;;;;;5001526;28;20829;-63
2023/12/15 04:07:44;;;;;;;31.90;16.15;;;;;;;;;;5001430;28;20034;-63
2023/12/15 04:10:10;;;;;;;20.65;13.48;;;;;;;;;;5000200;28;20124;-63
2023/12/15 04:12:36;;;;;;;28.10;14.80;;;;;;;;;;4998877;28;20038;-63
2023/12/15 04:15:03;;;;;;;26.55;15.05;;;;;;;;;;4999291;28;20466;-63
2023/12/15 04:17:29;;;;;;;26.20;14.95;;;;;;;;;;5000653;28;20657;-63
2023/12/15 04:19:55;;;;;;;28.98;14.52;;;;;;;;;;5000104;28;20037;-63
2023/12/15 04:22:22;;;;;;;28.73;14.65;;;;;;;;;;4999904;28;20038;-63
2023/12/15 04:24:48;;;;;;;23.20;12.57;;;;;;;;;;5000114;28;20033;-63
2023/12/15 04:27:14;;;;;;;29.05;14.93;;;;;;;;;;4999209;28;20041;-63
2023/12/15 04:29:40;;;;;;;29.85;13.73;;;;;;;;;;5000612;28;20046;-63
2023/12/15 04:32:07;;;;;;;24.88;12.35;;;;;;;;;;5001031;28;20021;-63
2023/12/15 04:34:33;;;;;;;26.00;13.23;;;;;;;;;;5000673;28;20033;-64
2023/12/15 04:36:59;;;;;;;21.42;13.02;;;;;;;;;;4999729;28;21891;-64
2023/12/15 04:39:25;;;;;;;27.23;14.93;;;;;;;;;;4999775;28;20095;-64
2023/12/15 04:41:51;;;;;;;29.20;13.98;;;;;;;;;;4998848;28;20037;-64
2023/12/15 04:44:17;;;;;;;25.25;13.52;;;;;;;;;;4998480;28;20076;-64
2023/12/15 04:46:44;;;;;;;27.75;13.98;;;;;;;;;;4999411;28;20044;-63
2023/12/15 04:49:10;;;;;;;28.38;13.25;;;;;;;;;;4998964;28;21088;-63
2023/12/15 04:51:36;;;;;;;26.75;12.43;;;;;;;;;;4999336;28;20560;-64
2023/12/15 04:54:02;;;;;;;25.98;12.73;;;;;;;;;;5000336;28;20401;-64
2023/12/15 04:56:28;;;;;;;21.42;11.90;;;;;;;;;;4999001;28;20034;-64
2023/12/15 04:58:54;;;;;;;31.20;14.10;;;;;;;;;;4998992;28;20039;-64
2023/12/15 05:01:20;;;;;;;24.38;12.55;;;;;;;;;;5013953;28;20033;-64
2023/12/15 05:03:46;;;;;;;31.63;11.90;;;;;;;;;;4999328;28;20025;-63
2023/12/15 05:06:22;;;;;;;22.30;12.00;;;;;;;;;;4999208;28;20061;-63
2023/12/15 05:08:49;;;;;;;24.58;11.23;;;;;;;;;;4999106;28;20115;-63
2023/12/15 05:11:16;;;;;;;26.67;11.43;;;;;;;;;;4999402;28;20037;-64
2023/12/15 05:13:42;;;;;;;28.88;12.25;;;;;;;;;;4999056;28;20049;-64
2023/12/15 05:16:08;;;;;;;21.42;10.65;;;;;;;;;;4999171;28;20041;-64
2023/12/15 05:18:34;;;;;;;23.95;9.45;;;;;;;;;;4999477;28;20124;-64
2023/12/15 05:21:00;;;;;;;33.63;11.95;;;;;;;;;;4999040;28;21681;-64
2023/12/15 05:23:27;;;;;;;22.80;10.48;;;;;;;;;;4999509;28;20036;-64
2023/12/15 05:25:53;;;;;;;23.27;11.50;;;;;;;;;;4999031;28;20557;-64
2023/12/15 05:28:20;;;;;;;25.33;11.05;;;;;;;;;;4998102;28;20941;-64
2023/12/15 05:30:46;;;;;;;25.00;10.45;;;;;;;;;;4998433;28;20030;-64
2023/12/15 05:33:12;;;;;;;20.52;10.05;;;;;;;;;;4999150;28;20076;-63
2023/12/15 05:35:38;;;;;;;20.67;10.27;;;;;;;;;;4998326;28;20114;-64
2023/12/15 05:38:04;;;;;;;18.02;9.60;;;;;;;;;;4998308;28;20026;-64
2023/12/15 05:40:30;;;;;;;25.15;11.10;;;;;;;;;;4999085;28;20076;-63
2023/12/15 05:42:56;;;;;;;30.00;10.77;;;;;;;;;;4998623;28;20038;-63
2023/12/15 05:45:22;;;;;;;26.95;9.57;;;;;;;;;;4998970;28;20030;-63
2023/12/15 05:47:49;;;;;;;23.40;10.70;;;;;;;;;;4998059;28;20129;-63
2023/12/15 05:50:15;;;;;;;23.13;9.35;;;;;;;;;;4998888;28;20236;-63
2023/12/15 05:52:41;;;;;;;22.50;9.38;;;;;;;;;;5000025;28;20204;-63
2023/12/15 05:55:08;;;;;;;24.95;9.52;;;;;;;;;;4998696;28;20101;-63
2023/12/15 05:57:34;;;;;;;25.17;10.15;;;;;;;;;;4998748;28;20041;-64
2023/12/15 06:00:00;;;;;;;30.27;10.32;;;;;;;;;;4997347;28;20107;-64
2023/12/15 06:02:26;;;;;;;26.25;10.18;;;;;;;;;;4997983;28;20034;-64
2023/12/15 06:04:52;;;;;;;31.27;9.80;;;;;;;;;;4998330;28;20038;-64
2023/12/15 06:07:19;;;;;;;25.15;9.90;;;;;;;;;;4997784;28;20061;-64
2023/12/15 06:09:46;;;;;;;22.58;9.23;;;;;;;;;;5000287;28;21625;-63
2023/12/15 06:12:12;;;;;;;20.90;9.27;;;;;;;;;;5001714;28;20025;-63
2023/12/15 06:14:38;;;;;;;25.98;8.77;;;;;;;;;;5001896;28;20034;-63
2023/12/15 06:17:08;;;;;;;25.02;9.40;;;;;;;;;;5002665;28;20068;-63
2023/12/15 06:19:34;;;;;;;16.70;7.88;;;;;;;;;;5002289;28;20021;-63
2023/12/15 06:22:00;;;;;;;21.40;7.70;;;;;;;;;;5001955;28;20056;-63
2023/12/15 06:24:27;;;;;;;20.17;7.85;;;;;;;;;;5001758;28;20075;-63
2023/12/15 06:26:53;;;;;;;25.02;8.35;;;;;;;;;;5001529;28;20040;-63
2023/12/15 06:29:19;;;;;;;26.63;8.32;;;;;;;;;;5001870;28;20033;-63
2023/12/15 06:31:46;;;;;;;22.48;8.43;;;;;;;;;;5002310;28;20025;-63
2023/12/15 06:34:12;;;;;;;17.95;8.02;;;;;;;;;;5002001;28;20079;-64
2023/12/15 06:36:38;;;;;;;26.60;8.30;;;;;;;;;;5000670;28;20025;-64
2023/12/15 06:39:04;;;;;;;27.23;9.65;;;;;;;;;;5002151;28;20124;-64
2023/12/15 06:41:30;;;;;;;20.80;7.03;;;;;;;;;;5001005;28;20077;-64
2023/12/15 06:43:56;;;;;;;22.95;7.07;;;;;;;;;;4999232;28;20033;-64
2023/12/15 06:46:22;;;;;;;21.45;8.00;;;;;;;;;;5001033;28;20037;-64
2023/12/15 06:48:48;;;;;;;29.25;8.88;;;;;;;;;;5002385;28;20037;-64
2023/12/15 06:51:14;;;;;;;21.20;8.48;;;;;;;;;;5000946;28;20049;-63
2023/12/15 06:53:40;;;;;;;30.13;12.00;;;;;;;;;;5000888;28;20493;-63
2023/12/15 06:56:07;;;;;;;20.42;7.72;;;;;;;;;;5001674;28;20053;-63
2023/12/15 06:58:33;;;;;;;18.23;7.78;;;;;;;;;;5001221;28;20033;-63
2023/12/15 07:00:59;;;;;;;14.95;7.07;;;;;;;;;;5001633;28;20025;-63
2023/12/15 07:03:25;;;;;;;25.52;7.60;;;;;;;;;;5001466;28;20128;-64
2023/12/15 07:05:51;;;;;;;17.13;6.82;;;;;;;;;;5000138;28;20544;-64
2023/12/15 07:08:17;;;;;;;23.48;8.00;;;;;;;;;;4999563;28;20071;-64
2023/12/15 07:10:43;;;;;;;16.02;6.68;;;;;;;;;;5001289;28;20124;-65
2023/12/15 07:13:09;;;;;;;20.33;7.72;;;;;;;;;;5000173;28;20077;-64
2023/12/15 07:15:35;;;;;;;23.33;7.43;;;;;;;;;;5000573;28;20030;-64
2023/12/15 07:18:01;;;;;;;16.15;6.93;;;;;;;;;;5000279;28;20080;-64
2023/12/15 07:20:28;;;;;;;18.27;7.03;;;;;;;;;;5000588;28;20029;-64
2023/12/15 07:22:54;;;;;;;26.50;7.22;;;;;;;;;;5001085;28;21063;-64
2023/12/15 07:25:20;;;;;;;26.08;6.97;;;;;;;;;;4999842;28;20104;-64
2023/12/15 07:27:46;;;;;;;17.42;6.80;;;;;;;;;;4999610;28;20941;-63
2023/12/15 07:30:12;;;;;;;19.52;6.30;;;;;;;;;;5000621;28;20065;-63
2023/12/15 07:32:38;;;;;;;30.92;7.85;;;;;;;;;;5000056;28;20038;-63
2023/12/15 07:35:05;;;;;;;20.00;6.20;;;;;;;;;;5000477;28;20429;-64
2023/12/15 07:37:31;;;;;;;17.65;6.07;;;;;;;;;;4999454;28;20049;-64
2023/12/15 07:39:57;;;;;;;16.85;5.55;;;;;;;;;;4999587;28;20037;-64
2023/12/15 07:42:23;;;;;;;17.08;6.28;;;;;;;;;;4998786;28;20033;-64
2023/12/15 07:44:49;;;;;;;22.10;6.60;;;;;;;;;;4999975;28;20132;-64
2023/12/15 07:47:15;;;;;;;23.83;6.97;;;;;;;;;;5000715;28;20069;-64
2023/12/15 07:49:41;;;;;;;20.50;6.82;;;;;;;;;;5000084;28;20077;-64
2023/12/15 07:52:07;;;;;;;24.15;6.20;;;;;;;;;;4998932;28;20062;-64
2023/12/15 07:54:34;;;;;;;26.70;6.18;;;;;;;;;;5000224;28;20111;-65
2023/12/15 07:57:00;;;;;;;28.45;6.72;;;;;;;;;;5000145;28;20040;-64
2023/12/15 07:59:26;;;;;;;23.75;6.63;;;;;;;;;;5000153;28;20037;-64
2023/12/15 08:01:55;;;;;;;27.65;6.65;;;;;;;;;;5000051;28;20034;-64
2023/12/15 08:04:21;;;;;;;30.20;6.22;;;;;;;;;;4999918;28;20043;-64
2023/12/15 08:06:47;;;;;;;27.08;7.00;;;;;;;;;;4999110;28;20029;-64
2023/12/15 08:09:13;;;;;;;19.73;5.78;;;;;;;;;;5000004;28;20026;-64
2023/12/15 08:11:39;;;;;;;24.45;6.10;;;;;;;;;;4999689;28;20030;-64
2023/12/15 08:14:05;;;;;;;20.00;5.90;;;;;;;;;;5000373;28;20042;-64
2023/12/15 08:16:31;;;;;;;27.67;6.65;;;;;;;;;;5000787;28;21916;-64
2023/12/15 08:18:58;;;;;;;23.73;5.80;;;;;;;;;;5000008;28;20396;-64
2023/12/15 08:21:24;;;;;;;28.75;5.47;;;;;;;;;;5000005;28;20018;-64
2023/12/15 08:23:50;;;;;;;30.83;6.47;;;;;;;;;;4999927;28;20500;-64
2023/12/15 08:26:23;;;;;;;19.30;5.15;;;;;;;;;;4997951;28;21949;-64
2023/12/15 08:28:50;;;;;;;29.45;7.15;;;;;;;;;;4999975;28;20029;-64
2023/12/15 08:31:16;;;;;;;31.15;6.13;;;;;;;;;;4998240;28;20149;-64
2023/12/15 08:33:43;;;;;;;30.38;5.93;;;;;;;;;;4998175;28;20094;-64
2023/12/15 08:36:09;;;;;;;38.60;8.20;;;;;;;;;;4999750;28;20086;-64
2023/12/15 08:38:36;;;;;;;19.88;4.88;;;;;;;;;;4999596;28;20099;-64
2023/12/15 08:41:02;;;;;;;21.73;5.72;;;;;;;;;;4999021;28;20029;-64
2023/12/15 08:43:28;;;;;;;28.00;6.75;;;;;;;;;;4999100;28;20104;-64
2023/12/15 08:45:54;;;;;;;26.73;6.18;;;;;;;;;;4998629;28;20041;-64
2023/12/15 08:48:21;;;;;;;25.25;6.53;;;;;;;;;;4999143;28;20107;-64
2023/12/15 08:50:47;;;;;;;32.15;6.60;;;;;;;;;;4999582;28;20060;-64
2023/12/15 08:53:15;;;;;;;19.15;6.38;;;;;;;;;;4998870;28;20033;-64
2023/12/15 08:55:41;;;;;;;26.58;6.40;;;;;;;;;;4999084;28;20048;-64
2023/12/15 08:58:07;;;;;;;31.63;6.10;;;;;;;;;;4998610;28;20028;-64
2023/12/15 09:00:33;;;;;;;21.90;5.80;;;;;;;;;;5000197;28;20080;-64
2023/12/15 09:02:59;;;;;;;27.55;5.93;;;;;;;;;;4999696;28;20033;-64
2023/12/15 09:05:25;;;;;;;27.02;6.25;;;;;;;;;;4999722;28;20033;-64
2023/12/15 09:07:52;;;;;;;26.55;5.45;;;;;;;;;;4999306;28;20045;-64
2023/12/15 09:10:19;;;;;;;21.38;5.25;;;;;;;;;;4998728;28;20026;-64
2023/12/15 09:12:45;;;;;;;22.98;6.35;;;;;;;;;;4999768;28;20159;-64
2023/12/15 09:15:12;;;;;;;27.75;5.25;;;;;;;;;;4999692;28;20034;-64
2023/12/15 09:17:38;;;;;;;24.67;6.43;;;;;;;;;;5000244;28;20037;-64
2023/12/15 09:20:05;;;;;;;25.15;5.72;;;;;;;;;;4998510;28;20029;-64
2023/12/15 09:22:31;;;;;;;22.65;5.43;;;;;;;;;;5000108;28;20025;-64
2023/12/15 09:24:57;;;;;;;27.55;5.45;;;;;;;;;;4999683;28;21740;-64
2023/12/15 09:27:23;;;;;;;22.67;4.97;;;;;;;;;;5000012;28;20493;-64
2023/12/15 09:29:49;;;;;;;17.30;4.90;;;;;;;;;;4999734;28;20948;-64
2023/12/15 09:32:15;;;;;;;19.98;5.30;;;;;;;;;;4998875;28;20120;-64
2023/12/15 09:34:42;;;;;;;22.38;5.13;;;;;;;;;;4997742;28;20032;-64
2023/12/15 09:37:08;;;;;;;23.02;5.15;;;;;;;;;;4998345;28;20429;-64
2023/12/15 09:39:34;;;;;;;31.05;6.57;;;;;;;;;;4998774;28;20033;-64
2023/12/15 09:42:00;;;;;;;23.70;4.75;;;;;;;;;;4998689;28;20034;-64
2023/12/15 09:44:26;;;;;;;27.75;6.10;;;;;;;;;;5002261;28;20115;-64
2023/12/15 09:46:52;;;;;;;25.70;5.50;;;;;;;;;;5003777;28;20022;-64
2023/12/15 09:49:20;;;;;;;30.35;6.63;;;;;;;;;;5002044;28;20794;-65
2023/12/15 09:51:52;;;;;;;28.27;6.18;;;;;;;;;;5003373;28;20104;-64
2023/12/15 09:54:19;;;;;;;23.52;5.50;;;;;;;;;;5003099;28;20989;-64
2023/12/15 09:56:48;;;;;;;21.73;5.63;;;;;;;;;;5002865;28;20493;-64
2023/12/15 09:59:14;;;;;;;35.33;6.22;;;;;;;;;;5003022;28;20030;-64
2023/12/15 10:01:40;;;;;;;28.35;5.53;;;;;;;;;;5002645;28;20056;-64
2023/12/15 10:04:07;;;;;;;23.15;5.88;;;;;;;;;;5003697;28;20792;-64
2023/12/15 10:06:33;;;;;;;23.13;5.53;;;;;;;;;;5002063;28;20045;-64
2023/12/15 10:09:00;;;;;;;28.10;5.40;;;;;;;;;;5002570;28;20030;-64
2023/12/15 10:11:27;;;;;;;26.35;5.25;;;;;;;;;;5001422;28;20048;-64
2023/12/15 10:13:53;;;;;;;26.63;5.18;;;;;;;;;;5002433;28;20025;-64
2023/12/15 10:16:20;;;;;;;27.20;5.85;;;;;;;;;;5002307;28;20041;-64
2023/12/15 10:18:47;;;;;;;33.05;5.35;;;;;;;;;;5002239;28;20033;-65
2023/12/15 10:21:13;;;;;;;30.40;5.03;;;;;;;;;;5001693;28;20127;-64
2023/12/15 10:23:39;;;;;;;26.77;5.93;;;;;;;;;;5001879;28;21898;-64
2023/12/15 10:26:06;;;;;;;28.13;5.50;;;;;;;;;;5001457;28;21100;-65
2023/12/15 10:28:39;;;;;;;24.63;5.30;;;;;;;;;;5000969;28;20026;-64
2023/12/15 10:31:05;;;;;;;34.90;5.93;;;;;;;;;;5000359;28;20040;-64
2023/12/15 10:33:33;;;;;;;26.83;4.60;;;;;;;;;;5001055;28;20037;-64
2023/12/15 10:36:02;;;;;;;29.30;5.20;;;;;;;;;;5001207;28;20041;-64
2023/12/15 10:38:29;;;;;;;28.25;5.28;;;;;;;;;;5001320;28;20032;-64
2023/12/15 10:40:56;;;;;;;27.77;6.18;;;;;;;;;;5001123;28;20513;-64
2023/12/15 10:43:23;;;;;;;34.13;5.88;;;;;;;;;;5000798;28;20038;-64
2023/12/15 10:45:50;;;;;;;24.65;4.78;;;;;;;;;;5001823;28;20867;-64
2023/12/15 10:48:18;;;;;;;30.88;5.28;;;;;;;;;;5001961;28;20037;-64
2023/12/15 10:50:45;;;;;;;29.55;6.53;;;;;;;;;;5002625;28;20068;-64
2023/12/15 10:53:13;;;;;;;24.15;5.60;;;;;;;;;;5001535;28;20026;-64
2023/12/15 10:55:40;;;;;;;33.30;6.05;;;;;;;;;;5007619;28;20063;-64
2023/12/15 10:58:08;;;;;;;28.90;5.70;;;;;;;;;;5008668;28;20100;-64
2023/12/15 11:00:36;;;;;;;31.00;7.43;;;;;;;;;;5022852;28;20037;-64
2023/12/15 11:03:03;;;;;;;28.88;5.28;;;;;;;;;;5008240;28;20075;-64
2023/12/15 11:05:32;;;;;;;34.90;6.53;;;;;;;;;;5008269;28;20045;-64
2023/12/15 11:07:58;;;;;;;24.48;5.15;;;;;;;;;;5009489;28;20068;-64
2023/12/15 11:10:25;;;;;;;27.77;5.78;;;;;;;;;;5009001;28;20080;-64
2023/12/15 11:12:52;;;;;;;26.65;5.88;;;;;;;;;;5007326;28;20029;-64
2023/12/15 11:15:19;;;;;;;34.92;5.65;;;;;;;;;;5007448;28;20084;-64
2023/12/15 11:17:55;;;;;;;24.35;5.90;;;;;;;;;;5008092;28;21796;-64
2023/12/15 11:20:22;;;;;;;30.20;6.05;;;;;;;;;;5008189;28;20041;-64
2023/12/15 11:22:52;;;;;;;21.52;5.72;;;;;;;;;;5008698;28;20025;-64
2023/12/15 11:25:18;;;;;;;34.13;6.95;;;;;;;;;;5008710;28;20041;-64
2023/12/15 11:28:17;;;;;;;28.48;6.00;;;;;;;;;;5008635;28;20034;-64
2023/12/15 11:30:44;;;;;;;29.63;6.30;;;;;;;;;;5000419;28;20049;-64
2023/12/15 11:33:22;;;;;;;31.98;6.78;;;;;;;;;;5008372;28;20088;-64
2023/12/15 11:35:55;;;;;;;27.88;6.63;;;;;;;;;;5007953;28;20796;-64
2023/12/15 11:38:21;;;;;;;36.53;6.80;;;;;;;;;;5008199;28;20108;-64
2023/12/15 11:40:50;;;;;;;26.65;5.82;;;;;;;;;;5008670;28;20504;-64
2023/12/15 11:43:17;;;;;;;30.15;6.32;;;;;;;;;;5007882;28;20034;-64
2023/12/15 11:45:43;;;;;;;30.63;6.43;;;;;;;;;;5008746;28;20026;-64
2023/12/15 11:48:10;;;;;;;28.55;5.85;;;;;;;;;;5008001;28;20518;-64
2023/12/15 11:50:36;;;;;;;31.17;5.70;;;;;;;;;;5007552;28;20065;-64
2023/12/15 11:53:15;;;;;;;31.08;7.05;;;;;;;;;;5006768;28;20041;-64
2023/12/15 11:55:41;;;;;;;29.00;6.45;;;;;;;;;;5007692;28;20049;-64
2023/12/15 11:58:09;;;;;;;29.05;5.72;;;;;;;;;;5008055;28;20052;-64
2023/12/15 12:00:35;;;;;;;28.42;7.30;;;;;;;;;;5008103;28;20029;-64
2023/12/15 12:03:03;;;;;;;31.92;5.70;;;;;;;;;;5006879;28;20057;-64
2023/12/15 12:05:29;;;;;;;30.52;6.35;;;;;;;;;;5007485;28;20033;-64
2023/12/15 12:07:56;;;;;;;29.70;5.57;;;;;;;;;;5006981;28;20029;-64
2023/12/15 12:10:30;;;;;;;28.23;5.43;;;;;;;;;;5006888;28;20037;-64
2023/12/15 12:12:57;;;;;;;33.33;5.90;;;;;;;;;;5007449;28;20036;-64
2023/12/15 12:15:23;;;;;;;31.85;6.68;;;;;;;;;;5007581;28;20047;-64
2023/12/15 12:17:49;;;;;;;33.90;6.00;;;;;;;;;;5006429;28;20087;-64
2023/12/15 12:20:15;;;;;;;35.00;6.10;;;;;;;;;;5007391;28;20473;-63
2023/12/15 12:22:41;;;;;;;30.05;5.53;;;;;;;;;;5007072;28;20119;-63
2023/12/15 12:25:10;;;;;;;28.88;6.38;;;;;;;;;;5007047;28;20112;-63
2023/12/15 12:27:36;;;;;;;29.92;6.60;;;;;;;;;;5007377;28;20034;-63
2023/12/15 12:30:03;;;;;;;31.45;6.13;;;;;;;;;;5007548;28;20774;-63
2023/12/15 12:32:30;;;;;;;38.40;7.68;;;;;;;;;;5006835;28;20061;-63
2023/12/15 12:34:57;;;;;;;28.35;6.65;;;;;;;;;;5005312;28;21003;-63
2023/12/15 12:37:23;;;;;;;35.42;5.90;;;;;;;;;;5006522;28;20132;-63
2023/12/15 12:39:49;;;;;;;29.48;6.38;;;;;;;;;;5007264;28;20022;-63
2023/12/15 12:42:15;;;;;;;25.65;5.43;;;;;;;;;;5007012;28;20091;-63
2023/12/15 12:44:42;;;;;;;29.35;6.50;;;;;;;;;;5006428;28;20034;-63
2023/12/15 12:47:08;;;;;;;31.65;6.45;;;;;;;;;;4998113;28;20080;-63
2023/12/15 12:49:34;;;;;;;33.92;8.27;;;;;;;;;;4998426;28;20057;-63
2023/12/15 12:52:00;;;;;;;35.15;6.57;;;;;;;;;;4998693;28;20080;-64
2023/12/15 12:54:26;;;;;;;28.75;6.22;;;;;;;;;;4999393;28;20037;-63
2023/12/15 12:56:52;;;;;;;25.15;6.82;;;;;;;;;;4999090;28;20030;-63
2023/12/15 12:59:20;;;;;;;31.80;6.00;;;;;;;;;;4998938;28;20156;-63
2023/12/15 13:01:46;;;;;;;28.35;5.57;;;;;;;;;;4998687;28;20104;-63
2023/12/15 13:04:12;;;;;;;28.85;6.07;;;;;;;;;;4999176;28;20057;-63
2023/12/15 13:06:38;;;;;;;30.65;6.07;;;;;;;;;;4998709;28;20033;-63
2023/12/15 13:09:05;;;;;;;23.27;4.63;;;;;;;;;;4998348;28;20034;-63
2023/12/15 13:11:31;;;;;;;27.50;6.63;;;;;;;;;;4997968;28;20029;-63
2023/12/15 13:13:57;;;;;;;26.70;4.57;;;;;;;;;;4999319;28;20022;-63
2023/12/15 13:16:23;;;;;;;28.83;6.53;;;;;;;;;;4997265;28;20227;-63
2023/12/15 13:18:49;;;;;;;32.80;5.65;;;;;;;;;;4998551;28;20048;-63
2023/12/15 13:21:15;;;;;;;29.38;5.13;;;;;;;;;;4997624;28;20057;-63
2023/12/15 13:23:41;;;;;;;30.13;6.05;;;;;;;;;;4998063;28;20029;-63
2023/12/15 13:26:08;;;;;;;29.90;6.55;;;;;;;;;;4996692;28;20037;-63
2023/12/15 13:28:36;;;;;;;25.00;5.88;;;;;;;;;;4993286;28;20048;-63
2023/12/15 13:31:04;;;;;;;30.00;6.57;;;;;;;;;;4996963;28;20044;-63
2023/12/15 13:33:31;;;;;;;26.70;5.18;;;;;;;;;;4998036;28;20750;-63
2023/12/15 13:35:57;;;;;;;35.70;5.68;;;;;;;;;;4999165;28;20480;-63
2023/12/15 13:38:24;;;;;;;22.92;4.93;;;;;;;;;;4998089;28;20034;-63
2023/12/15 13:40:50;;;;;;;28.65;5.80;;;;;;;;;;4997389;28;20083;-63
2023/12/15 13:43:16;;;;;;;25.13;6.03;;;;;;;;;;4996735;28;20033;-63
2023/12/15 13:45:42;;;;;;;25.77;6.13;;;;;;;;;;4997286;28;20515;-63
2023/12/15 13:48:08;;;;;;;25.23;5.03;;;;;;;;;;4998416;28;20033;-63
2023/12/15 13:50:34;;;;;;;28.27;6.88;;;;;;;;;;4998854;28;20053;-63
2023/12/15 13:53:02;;;;;;;21.55;4.97;;;;;;;;;;4998679;28;20036;-63
2023/12/15 13:55:29;;;;;;;22.50;5.13;;;;;;;;;;4998148;28;20037;-63
2023/12/15 13:57:55;;;;;;;28.30;6.30;;;;;;;;;;4998132;28;20196;-64
2023/12/15 14:00:21;;;;;;;23.83;4.53;;;;;;;;;;4998630;28;20113;-64
2023/12/15 14:02:47;;;;;;;27.33;5.57;;;;;;;;;;4998303;28;20026;-64
2023/12/15 14:05:14;;;;;;;27.40;4.97;;;;;;;;;;4997464;28;20136;-63
2023/12/15 14:07:40;;;;;;;19.75;4.43;;;;;;;;;;4998459;28;20022;-64
2023/12/15 14:10:08;;;;;;;26.98;6.07;;;;;;;;;;4999856;28;20064;-64
2023/12/15 14:12:34;;;;;;;27.83;5.25;;;;;;;;;;4997866;28;20107;-64
2023/12/15 14:15:00;;;;;;;28.98;5.72;;;;;;;;;;4997472;28;20192;-64
2023/12/15 14:17:29;;;;;;;26.85;6.28;;;;;;;;;;4997631;28;20034;-64
2023/12/15 14:19:56;;;;;;;34.17;6.03;;;;;;;;;;4998107;28;20107;-64